sensor_id;sensor_type;location;lat;lon;timestamp;temperature;humidity
1704;DHT22;849;48.780;9.216;2023-01-28T00:01:48;4.60;99.90
1704;DHT22;849;48.780;9.216;2023-01-28T00:04:14;4.40;99.90
1704;DHT22;849;48.780;9.216;2023-01-28T00:06:40;4.50;99.90
1704;DHT22;849;48.780;9.216;2023-01-28T00:09:06;4.40;99.90
1704;DHT22;849;48.780;9.216;2023-01-28T00:11:31;4.40;99.90
1704;DHT22;849;48.780;9.216;2023-01-28T00:13:58;4.50;99.90
1704;DHT22;849;48.780;9.216;2023-01-28T00:16:24;4.50;99.90
1704;DHT22;849;48.780;9.216;2023-01-28T00:18:52;4.50;99.90
1704;DHT22;849;48.780;9.216;2023-01-28T00:21:18;4.40;99.90
1704;DHT22;849;48.780;9.216;2023-01-28T00:23:51;4.30;99.90
1704;DHT22;849;48.780;9.216;2023-01-28T00:26:17;4.30;99.90
1704;DHT22;849;48.780;9.216;2023-01-28T00:28:43;4.40;99.90
1704;DHT22;849;48.780;9.216;2023-01-28T00:31:12;4.40;99.90
1704;DHT22;849;48.780;9.216;2023-01-28T00:33:38;4.40;99.90
1704;DHT22;849;48.780;9.216;2023-01-28T00:36:04;4.20;99.90
1704;DHT22;849;48.780;9.216;2023-01-28T00:38:31;4.40;99.90
1704;DHT22;849;48.780;9.216;2023-01-28T00:41:06;4.50;99.90
1704;DHT22;849;48.780;9.216;2023-01-28T00:43:33;4.60;99.90
1704;DHT22;849;48.780;9.216;2023-01-28T00:45:59;4.60;99.90
1704;DHT22;849;48.780;9.216;2023-01-28T00:48:25;4.70;99.90
1704;DHT22;849;48.780;9.216;2023-01-28T00:50:50;4.60;99.90
1704;DHT22;849;48.780;9.216;2023-01-28T00:53:16;4.50;99.90
1704;DHT22;849;48.780;9.216;2023-01-28T00:55:41;4.60;99.90
1704;DHT22;849;48.780;9.216;2023-01-28T00:58:08;4.70;99.90
1704;DHT22;849;48.780;9.216;2023-01-28T01:00:33;4.70;99.90
1704;DHT22;849;48.780;9.216;2023-01-28T01:02:59;4.70;99.90
1704;DHT22;849;48.780;9.216;2023-01-28T01:05:24;4.60;99.90
1704;DHT22;849;48.780;9.216;2023-01-28T01:07:50;4.60;99.90
1704;DHT22;849;48.780;9.216;2023-01-28T01:10:18;4.50;99.90
1704;DHT22;849;48.780;9.216;2023-01-28T01:12:48;4.40;99.90
1704;DHT22;849;48.780;9.216;2023-01-28T01:15:14;4.50;99.90
1704;DHT22;849;48.780;9.216;2023-01-28T01:17:42;4.50;99.90
1704;DHT22;849;48.780;9.216;2023-01-28T01:20:16;4.60;99.90
1704;DHT22;849;48.780;9.216;2023-01-28T01:22:42;4.70;99.90
1704;DHT22;849;48.780;9.216;2023-01-28T01:25:08;4.60;99.90
1704;DHT22;849;48.780;9.216;2023-01-28T01:27:33;4.50;99.90
1704;DHT22;849;48.780;9.216;2023-01-28T01:29:59;4.60;99.90
1704;DHT22;849;48.780;9.216;2023-01-28T01:32:29;4.60;99.90
1704;DHT22;849;48.780;9.216;2023-01-28T01:34:54;4.60;99.90
1704;DHT22;849;48.780;9.216;2023-01-28T01:37:20;4.60;99.90
1704;DHT22;849;48.780;9.216;2023-01-28T01:39:46;4.70;99.90
1704;DHT22;849;48.780;9.216;2023-01-28T01:42:13;4.70;99.90
1704;DHT22;849;48.780;9.216;2023-01-28T01:44:58;4.70;99.90
1704;DHT22;849;48.780;9.216;2023-01-28T01:50:02;4.70;99.90
1704;DHT22;849;48.780;9.216;2023-01-28T01:52:31;4.60;99.90
1704;DHT22;849;48.780;9.216;2023-01-28T01:55:01;4.60;99.90
1704;DHT22;849;48.780;9.216;2023-01-28T01:57:31;4.60;99.90
1704;DHT22;849;48.780;9.216;2023-01-28T01:59:59;4.60;99.90
1704;DHT22;849;48.780;9.216;2023-01-28T02:02:37;4.60;99.90
1704;DHT22;849;48.780;9.216;2023-01-28T02:05:04;4.60;99.90
1704;DHT22;849;48.780;9.216;2023-01-28T02:07:30;4.50;99.90
1704;DHT22;849;48.780;9.216;2023-01-28T02:09:56;4.40;99.90
1704;DHT22;849;48.780;9.216;2023-01-28T02:12:54;4.50;99.90
1704;DHT22;849;48.780;9.216;2023-01-28T02:15:23;4.70;99.90
1704;DHT22;849;48.780;9.216;2023-01-28T02:17:49;4.80;99.90
1704;DHT22;849;48.780;9.216;2023-01-28T02:20:21;4.80;99.90
1704;DHT22;849;48.780;9.216;2023-01-28T02:28:48;4.60;99.90
1704;DHT22;849;48.780;9.216;2023-01-28T02:31:31;4.60;99.90
1704;DHT22;849;48.780;9.216;2023-01-28T02:34:04;4.80;99.90
1704;DHT22;849;48.780;9.216;2023-01-28T02:36:49;4.90;99.90
1704;DHT22;849;48.780;9.216;2023-01-28T02:39:32;4.90;99.90
1704;DHT22;849;48.780;9.216;2023-01-28T02:42:33;4.90;99.90
1704;DHT22;849;48.780;9.216;2023-01-28T02:44:57;4.90;99.90
1704;DHT22;849;48.780;9.216;2023-01-28T02:47:22;4.90;99.90
1704;DHT22;849;48.780;9.216;2023-01-28T02:50:16;4.90;99.90
1704;DHT22;849;48.780;9.216;2023-01-28T02:53:21;4.70;99.90
1704;DHT22;849;48.780;9.216;2023-01-28T02:59:16;4.80;99.90
1704;DHT22;849;48.780;9.216;2023-01-28T03:02:22;4.90;99.90
1704;DHT22;849;48.780;9.216;2023-01-28T03:05:09;5.00;99.90
1704;DHT22;849;48.780;9.216;2023-01-28T03:07:37;4.70;99.90
1704;DHT22;849;48.780;9.216;2023-01-28T03:10:06;4.50;99.90
1704;DHT22;849;48.780;9.216;2023-01-28T03:12:36;4.50;99.90
1704;DHT22;849;48.780;9.216;2023-01-28T03:15:29;4.60;99.90
1704;DHT22;849;48.780;9.216;2023-01-28T03:18:20;4.50;99.90
1704;DHT22;849;48.780;9.216;2023-01-28T03:24:22;4.60;99.90
1704;DHT22;849;48.780;9.216;2023-01-28T03:30:14;4.70;99.90
1704;DHT22;849;48.780;9.216;2023-01-28T03:33:03;4.40;99.90
1704;DHT22;849;48.780;9.216;2023-01-28T03:35:48;4.40;99.90
1704;DHT22;849;48.780;9.216;2023-01-28T03:38:33;4.30;99.90
1704;DHT22;849;48.780;9.216;2023-01-28T03:41:08;4.10;99.90
1704;DHT22;849;48.780;9.216;2023-01-28T03:43:34;4.00;99.90
1704;DHT22;849;48.780;9.216;2023-01-28T03:46:00;4.20;99.90
1704;DHT22;849;48.780;9.216;2023-01-28T03:48:27;4.40;99.90
1704;DHT22;849;48.780;9.216;2023-01-28T03:50:56;4.40;99.90
1704;DHT22;849;48.780;9.216;2023-01-28T03:53:25;4.40;99.90
1704;DHT22;849;48.780;9.216;2023-01-28T03:55:52;4.20;99.90
1704;DHT22;849;48.780;9.216;2023-01-28T03:58:19;4.40;99.90
1704;DHT22;849;48.780;9.216;2023-01-28T04:00:45;4.60;99.90
1704;DHT22;849;48.780;9.216;2023-01-28T04:03:16;4.60;99.90
1704;DHT22;849;48.780;9.216;2023-01-28T04:05:44;4.50;99.90
1704;DHT22;849;48.780;9.216;2023-01-28T04:08:10;4.60;99.90
1704;DHT22;849;48.780;9.216;2023-01-28T04:10:37;4.80;99.90
1704;DHT22;849;48.780;9.216;2023-01-28T04:13:04;4.60;99.90
1704;DHT22;849;48.780;9.216;2023-01-28T04:15:30;4.60;99.90
1704;DHT22;849;48.780;9.216;2023-01-28T04:17:56;4.70;99.90
1704;DHT22;849;48.780;9.216;2023-01-28T04:20:21;4.50;99.90
1704;DHT22;849;48.780;9.216;2023-01-28T04:22:47;4.50;99.90
1704;DHT22;849;48.780;9.216;2023-01-28T04:25:13;4.50;99.90
1704;DHT22;849;48.780;9.216;2023-01-28T04:27:38;4.50;99.90
1704;DHT22;849;48.780;9.216;2023-01-28T04:30:05;4.40;99.90
1704;DHT22;849;48.780;9.216;2023-01-28T04:32:31;4.20;99.90
1704;DHT22;849;48.780;9.216;2023-01-28T04:34:56;4.30;99.90
1704;DHT22;849;48.780;9.216;2023-01-28T04:37:22;4.40;99.90
1704;DHT22;849;48.780;9.216;2023-01-28T04:39:47;4.30;99.90
1704;DHT22;849;48.780;9.216;2023-01-28T04:42:13;4.40;99.90
1704;DHT22;849;48.780;9.216;2023-01-28T04:44:39;4.50;99.90
1704;DHT22;849;48.780;9.216;2023-01-28T04:47:04;4.50;99.90
1704;DHT22;849;48.780;9.216;2023-01-28T04:49:30;4.60;99.90
1704;DHT22;849;48.780;9.216;2023-01-28T04:51:57;4.50;99.90
1704;DHT22;849;48.780;9.216;2023-01-28T04:54:22;4.60;99.90
1704;DHT22;849;48.780;9.216;2023-01-28T04:56:48;4.70;99.90
1704;DHT22;849;48.780;9.216;2023-01-28T04:59:14;4.80;99.90
1704;DHT22;849;48.780;9.216;2023-01-28T05:01:40;4.80;99.90
1704;DHT22;849;48.780;9.216;2023-01-28T05:04:05;4.90;99.90
1704;DHT22;849;48.780;9.216;2023-01-28T05:06:32;4.80;99.90
1704;DHT22;849;48.780;9.216;2023-01-28T05:08:57;4.80;99.90
1704;DHT22;849;48.780;9.216;2023-01-28T05:11:23;4.80;99.90
1704;DHT22;849;48.780;9.216;2023-01-28T05:13:49;4.70;99.90
1704;DHT22;849;48.780;9.216;2023-01-28T05:16:16;4.80;99.90
1704;DHT22;849;48.780;9.216;2023-01-28T05:18:42;4.80;99.90
1704;DHT22;849;48.780;9.216;2023-01-28T05:21:08;4.80;99.90
1704;DHT22;849;48.780;9.216;2023-01-28T05:23:34;4.80;99.90
1704;DHT22;849;48.780;9.216;2023-01-28T05:25:59;4.80;99.90
1704;DHT22;849;48.780;9.216;2023-01-28T05:28:25;4.90;99.90
1704;DHT22;849;48.780;9.216;2023-01-28T05:30:51;4.90;99.90
1704;DHT22;849;48.780;9.216;2023-01-28T05:33:16;4.80;99.90
1704;DHT22;849;48.780;9.216;2023-01-28T05:35:42;4.80;99.90
1704;DHT22;849;48.780;9.216;2023-01-28T05:38:08;4.70;99.90
1704;DHT22;849;48.780;9.216;2023-01-28T05:40:34;4.80;99.90
1704;DHT22;849;48.780;9.216;2023-01-28T05:42:59;4.80;99.90
1704;DHT22;849;48.780;9.216;2023-01-28T05:45:25;4.90;99.90
1704;DHT22;849;48.780;9.216;2023-01-28T05:47:51;5.00;99.90
1704;DHT22;849;48.780;9.216;2023-01-28T05:50:16;5.10;99.90
1704;DHT22;849;48.780;9.216;2023-01-28T05:52:42;5.10;99.90
1704;DHT22;849;48.780;9.216;2023-01-28T05:55:09;5.10;99.90
1704;DHT22;849;48.780;9.216;2023-01-28T05:57:35;5.10;99.90
1704;DHT22;849;48.780;9.216;2023-01-28T06:00:02;5.10;99.90
1704;DHT22;849;48.780;9.216;2023-01-28T06:02:30;5.00;99.90
1704;DHT22;849;48.780;9.216;2023-01-28T06:04:55;5.10;99.90
1704;DHT22;849;48.780;9.216;2023-01-28T06:07:21;5.00;99.90
1704;DHT22;849;48.780;9.216;2023-01-28T06:09:48;4.90;99.90
1704;DHT22;849;48.780;9.216;2023-01-28T06:12:14;4.90;99.90
1704;DHT22;849;48.780;9.216;2023-01-28T06:14:40;4.80;99.90
1704;DHT22;849;48.780;9.216;2023-01-28T06:17:06;4.90;99.90
1704;DHT22;849;48.780;9.216;2023-01-28T06:19:32;4.90;99.90
1704;DHT22;849;48.780;9.216;2023-01-28T06:21:58;5.00;99.90
1704;DHT22;849;48.780;9.216;2023-01-28T06:24:23;5.00;99.90
1704;DHT22;849;48.780;9.216;2023-01-28T06:26:49;4.90;99.90
1704;DHT22;849;48.780;9.216;2023-01-28T06:29:14;4.90;99.90
1704;DHT22;849;48.780;9.216;2023-01-28T06:31:40;4.90;99.90
1704;DHT22;849;48.780;9.216;2023-01-28T06:34:06;5.00;99.90
1704;DHT22;849;48.780;9.216;2023-01-28T06:36:31;4.90;99.90
1704;DHT22;849;48.780;9.216;2023-01-28T06:38:57;5.00;99.90
1704;DHT22;849;48.780;9.216;2023-01-28T06:41:23;5.00;99.90
1704;DHT22;849;48.780;9.216;2023-01-28T06:43:49;5.00;99.90
1704;DHT22;849;48.780;9.216;2023-01-28T06:46:14;5.00;99.90
1704;DHT22;849;48.780;9.216;2023-01-28T06:48:40;4.90;99.90
1704;DHT22;849;48.780;9.216;2023-01-28T06:51:05;5.00;99.90
1704;DHT22;849;48.780;9.216;2023-01-28T06:53:31;5.00;99.90
1704;DHT22;849;48.780;9.216;2023-01-28T06:55:57;4.90;99.90
1704;DHT22;849;48.780;9.216;2023-01-28T06:58:22;5.00;99.90
1704;DHT22;849;48.780;9.216;2023-01-28T07:00:48;5.10;99.90
1704;DHT22;849;48.780;9.216;2023-01-28T07:03:13;5.10;99.90
1704;DHT22;849;48.780;9.216;2023-01-28T07:05:39;5.00;99.90
1704;DHT22;849;48.780;9.216;2023-01-28T07:08:06;5.00;99.90
1704;DHT22;849;48.780;9.216;2023-01-28T07:10:31;5.00;99.90
1704;DHT22;849;48.780;9.216;2023-01-28T07:12:57;5.00;99.90
1704;DHT22;849;48.780;9.216;2023-01-28T07:15:23;5.00;99.90
1704;DHT22;849;48.780;9.216;2023-01-28T07:17:48;5.00;99.90
1704;DHT22;849;48.780;9.216;2023-01-28T07:20:15;5.10;99.90
1704;DHT22;849;48.780;9.216;2023-01-28T07:22:42;5.10;99.90
1704;DHT22;849;48.780;9.216;2023-01-28T07:25:08;5.10;99.90
1704;DHT22;849;48.780;9.216;2023-01-28T07:27:34;5.00;99.90
1704;DHT22;849;48.780;9.216;2023-01-28T07:30:03;5.20;99.90
1704;DHT22;849;48.780;9.216;2023-01-28T07:32:29;5.10;99.90
1704;DHT22;849;48.780;9.216;2023-01-28T07:34:55;5.20;99.90
1704;DHT22;849;48.780;9.216;2023-01-28T07:37:21;5.20;99.90
1704;DHT22;849;48.780;9.216;2023-01-28T07:39:46;5.20;99.90
1704;DHT22;849;48.780;9.216;2023-01-28T07:42:12;5.30;99.90
1704;DHT22;849;48.780;9.216;2023-01-28T07:44:38;5.30;99.90
1704;DHT22;849;48.780;9.216;2023-01-28T07:47:04;5.30;99.90
1704;DHT22;849;48.780;9.216;2023-01-28T07:49:32;5.30;99.90
1704;DHT22;849;48.780;9.216;2023-01-28T07:51:57;5.30;99.90
1704;DHT22;849;48.780;9.216;2023-01-28T07:54:23;5.30;99.90
1704;DHT22;849;48.780;9.216;2023-01-28T07:56:48;5.40;99.90
1704;DHT22;849;48.780;9.216;2023-01-28T07:59:14;5.40;99.90
1704;DHT22;849;48.780;9.216;2023-01-28T08:01:40;5.20;99.90
1704;DHT22;849;48.780;9.216;2023-01-28T08:04:05;5.10;99.90
1704;DHT22;849;48.780;9.216;2023-01-28T08:06:31;5.10;99.90
1704;DHT22;849;48.780;9.216;2023-01-28T08:09:06;5.00;99.90
1704;DHT22;849;48.780;9.216;2023-01-28T08:11:41;5.10;99.90
1704;DHT22;849;48.780;9.216;2023-01-28T08:14:08;5.10;99.90
1704;DHT22;849;48.780;9.216;2023-01-28T08:16:34;5.10;99.90
1704;DHT22;849;48.780;9.216;2023-01-28T08:19:00;5.20;99.90
1704;DHT22;849;48.780;9.216;2023-01-28T08:21:25;5.20;99.90
1704;DHT22;849;48.780;9.216;2023-01-28T08:23:51;5.20;99.90
1704;DHT22;849;48.780;9.216;2023-01-28T08:26:17;5.20;99.90
1704;DHT22;849;48.780;9.216;2023-01-28T08:28:42;5.10;99.90
1704;DHT22;849;48.780;9.216;2023-01-28T08:31:08;5.10;99.90
1704;DHT22;849;48.780;9.216;2023-01-28T08:33:34;5.20;99.90
1704;DHT22;849;48.780;9.216;2023-01-28T08:36:03;5.20;99.90
1704;DHT22;849;48.780;9.216;2023-01-28T08:38:29;5.20;99.90
1704;DHT22;849;48.780;9.216;2023-01-28T08:40:58;5.20;99.90
1704;DHT22;849;48.780;9.216;2023-01-28T08:43:24;5.30;99.90
1704;DHT22;849;48.780;9.216;2023-01-28T08:45:50;5.30;99.90
1704;DHT22;849;48.780;9.216;2023-01-28T08:48:17;5.40;99.90
1704;DHT22;849;48.780;9.216;2023-01-28T08:50:44;5.40;99.90
1704;DHT22;849;48.780;9.216;2023-01-28T08:53:12;5.30;99.90
1704;DHT22;849;48.780;9.216;2023-01-28T08:55:38;5.30;99.90
1704;DHT22;849;48.780;9.216;2023-01-28T08:58:05;5.40;99.90
1704;DHT22;849;48.780;9.216;2023-01-28T09:00:32;5.40;99.90
1704;DHT22;849;48.780;9.216;2023-01-28T09:02:58;5.40;99.90
1704;DHT22;849;48.780;9.216;2023-01-28T09:05:24;5.30;99.90
1704;DHT22;849;48.780;9.216;2023-01-28T09:07:50;5.40;99.90
1704;DHT22;849;48.780;9.216;2023-01-28T09:10:16;5.40;99.90
1704;DHT22;849;48.780;9.216;2023-01-28T09:12:44;5.30;99.90
1704;DHT22;849;48.780;9.216;2023-01-28T09:15:11;5.40;99.90
1704;DHT22;849;48.780;9.216;2023-01-28T09:17:37;5.40;99.90
1704;DHT22;849;48.780;9.216;2023-01-28T09:20:04;5.40;99.90
1704;DHT22;849;48.780;9.216;2023-01-28T09:22:31;5.30;99.90
1704;DHT22;849;48.780;9.216;2023-01-28T09:24:57;5.20;99.90
1704;DHT22;849;48.780;9.216;2023-01-28T09:27:23;5.40;99.90
1704;DHT22;849;48.780;9.216;2023-01-28T09:29:49;5.30;99.90
1704;DHT22;849;48.780;9.216;2023-01-28T09:32:14;5.30;99.90
1704;DHT22;849;48.780;9.216;2023-01-28T09:34:40;5.20;99.90
1704;DHT22;849;48.780;9.216;2023-01-28T09:37:06;5.20;99.90
1704;DHT22;849;48.780;9.216;2023-01-28T09:39:31;5.20;99.90
1704;DHT22;849;48.780;9.216;2023-01-28T09:45:08;5.40;99.90
1704;DHT22;849;48.780;9.216;2023-01-28T09:47:40;5.50;99.90
1704;DHT22;849;48.780;9.216;2023-01-28T09:50:31;5.70;99.90
1704;DHT22;849;48.780;9.216;2023-01-28T09:53:04;5.70;99.90
1704;DHT22;849;48.780;9.216;2023-01-28T09:55:33;5.70;99.90
1704;DHT22;849;48.780;9.216;2023-01-28T09:58:00;5.60;99.90
1704;DHT22;849;48.780;9.216;2023-01-28T10:00:40;5.40;99.90
1704;DHT22;849;48.780;9.216;2023-01-28T10:06:27;5.40;99.90
1704;DHT22;849;48.780;9.216;2023-01-28T10:09:13;5.20;99.90
1704;DHT22;849;48.780;9.216;2023-01-28T10:15:09;5.30;99.90
1704;DHT22;849;48.780;9.216;2023-01-28T10:17:44;5.20;99.90
1704;DHT22;849;48.780;9.216;2023-01-28T10:20:16;5.10;99.90
1704;DHT22;849;48.780;9.216;2023-01-28T10:25:23;5.00;99.90
1704;DHT22;849;48.780;9.216;2023-01-28T10:27:50;5.00;99.90
1704;DHT22;849;48.780;9.216;2023-01-28T10:30:21;4.90;99.90
1704;DHT22;849;48.780;9.216;2023-01-28T10:32:52;5.00;99.90
1704;DHT22;849;48.780;9.216;2023-01-28T10:35:20;5.10;99.90
1704;DHT22;849;48.780;9.216;2023-01-28T10:37:46;5.20;99.90
1704;DHT22;849;48.780;9.216;2023-01-28T10:40:16;5.00;99.90
1704;DHT22;849;48.780;9.216;2023-01-28T10:42:42;5.00;99.90
1704;DHT22;849;48.780;9.216;2023-01-28T10:45:21;5.00;99.90
1704;DHT22;849;48.780;9.216;2023-01-28T10:50:24;5.10;99.90
1704;DHT22;849;48.780;9.216;2023-01-28T10:52:58;5.10;99.90
1704;DHT22;849;48.780;9.216;2023-01-28T10:55:55;5.10;99.90
1704;DHT22;849;48.780;9.216;2023-01-28T10:58:25;5.10;99.90
1704;DHT22;849;48.780;9.216;2023-01-28T11:00:58;5.10;99.90
1704;DHT22;849;48.780;9.216;2023-01-28T11:03:24;5.30;99.90
1704;DHT22;849;48.780;9.216;2023-01-28T11:05:56;5.50;99.90
1704;DHT22;849;48.780;9.216;2023-01-28T11:08:24;5.50;99.90
1704;DHT22;849;48.780;9.216;2023-01-28T11:10:51;5.50;99.90
1704;DHT22;849;48.780;9.216;2023-01-28T11:13:24;5.50;99.90
1704;DHT22;849;48.780;9.216;2023-01-28T11:15:53;5.50;99.90
1704;DHT22;849;48.780;9.216;2023-01-28T11:18:23;5.50;99.90
1704;DHT22;849;48.780;9.216;2023-01-28T11:20:52;5.60;99.90
1704;DHT22;849;48.780;9.216;2023-01-28T11:23:23;5.50;99.90
1704;DHT22;849;48.780;9.216;2023-01-28T11:26:06;5.40;99.90
1704;DHT22;849;48.780;9.216;2023-01-28T11:28:33;5.40;99.90
1704;DHT22;849;48.780;9.216;2023-01-28T11:31:01;5.50;99.90
1704;DHT22;849;48.780;9.216;2023-01-28T11:33:32;5.50;99.90
1704;DHT22;849;48.780;9.216;2023-01-28T11:36:15;5.40;99.90
1704;DHT22;849;48.780;9.216;2023-01-28T11:38:56;5.30;99.90
1704;DHT22;849;48.780;9.216;2023-01-28T11:41:30;5.40;99.90
1704;DHT22;849;48.780;9.216;2023-01-28T11:50:04;5.30;99.90
1704;DHT22;849;48.780;9.216;2023-01-28T11:53:03;5.30;99.90
1704;DHT22;849;48.780;9.216;2023-01-28T11:58:38;5.20;99.90
1704;DHT22;849;48.780;9.216;2023-01-28T12:01:15;5.10;99.90
1704;DHT22;849;48.780;9.216;2023-01-28T12:06:27;5.30;99.90
1704;DHT22;849;48.780;9.216;2023-01-28T12:17:57;5.50;99.90
1704;DHT22;849;48.780;9.216;2023-01-28T12:21:01;5.40;99.90
1704;DHT22;849;48.780;9.216;2023-01-28T12:23:54;5.40;99.90
1704;DHT22;849;48.780;9.216;2023-01-28T12:26:41;5.20;99.90
1704;DHT22;849;48.780;9.216;2023-01-28T12:37:27;5.20;99.90
1704;DHT22;849;48.780;9.216;2023-01-28T12:40:20;5.20;99.90
1704;DHT22;849;48.780;9.216;2023-01-28T12:42:56;5.20;99.90
1704;DHT22;849;48.780;9.216;2023-01-28T12:48:42;5.20;99.90
1704;DHT22;849;48.780;9.216;2023-01-28T12:51:17;5.10;99.90
1704;DHT22;849;48.780;9.216;2023-01-28T12:54:00;5.20;99.90
1704;DHT22;849;48.780;9.216;2023-01-28T12:56:33;5.20;99.90
1704;DHT22;849;48.780;9.216;2023-01-28T12:59:10;5.30;99.90
1704;DHT22;849;48.780;9.216;2023-01-28T13:01:53;5.30;99.90
1704;DHT22;849;48.780;9.216;2023-01-28T13:07:17;5.20;99.90
1704;DHT22;849;48.780;9.216;2023-01-28T13:09:52;5.30;99.90
1704;DHT22;849;48.780;9.216;2023-01-28T13:12:19;5.00;99.90
1704;DHT22;849;48.780;9.216;2023-01-28T13:14:47;5.00;99.90
1704;DHT22;849;48.780;9.216;2023-01-28T13:17:28;5.00;99.90
1704;DHT22;849;48.780;9.216;2023-01-28T13:19:54;5.00;99.90
1704;DHT22;849;48.780;9.216;2023-01-28T13:22:32;5.00;99.90
1704;DHT22;849;48.780;9.216;2023-01-28T13:25:21;5.10;99.90
1704;DHT22;849;48.780;9.216;2023-01-28T13:28:03;5.00;99.90
1704;DHT22;849;48.780;9.216;2023-01-28T13:30:34;5.00;99.90
1704;DHT22;849;48.780;9.216;2023-01-28T13:33:33;5.00;99.90
1704;DHT22;849;48.780;9.216;2023-01-28T13:36:06;4.90;99.90
1704;DHT22;849;48.780;9.216;2023-01-28T13:38:34;4.80;99.90
1704;DHT22;849;48.780;9.216;2023-01-28T13:41:00;4.80;99.90
1704;DHT22;849;48.780;9.216;2023-01-28T13:46:05;4.90;99.90
1704;DHT22;849;48.780;9.216;2023-01-28T13:51:03;4.90;99.90
1704;DHT22;849;48.780;9.216;2023-01-28T13:56:27;5.10;99.90
1704;DHT22;849;48.780;9.216;2023-01-28T13:59:17;4.80;99.90
1704;DHT22;849;48.780;9.216;2023-01-28T14:18:27;4.80;99.90
1704;DHT22;849;48.780;9.216;2023-01-28T14:20:55;4.90;99.90
1704;DHT22;849;48.780;9.216;2023-01-28T14:23:25;4.90;99.90
1704;DHT22;849;48.780;9.216;2023-01-28T14:31:53;5.00;99.90
1704;DHT22;849;48.780;9.216;2023-01-28T14:34:32;5.00;99.90
1704;DHT22;849;48.780;9.216;2023-01-28T14:37:05;5.00;99.90
1704;DHT22;849;48.780;9.216;2023-01-28T14:39:42;5.00;99.90
1704;DHT22;849;48.780;9.216;2023-01-28T14:42:23;5.10;99.90
1704;DHT22;849;48.780;9.216;2023-01-28T14:45:06;5.30;99.90
1704;DHT22;849;48.780;9.216;2023-01-28T14:59:18;4.80;99.90
1704;DHT22;849;48.780;9.216;2023-01-28T15:01:46;4.80;99.90
1704;DHT22;849;48.780;9.216;2023-01-28T15:04:30;4.80;99.90
1704;DHT22;849;48.780;9.216;2023-01-28T15:07:05;4.80;99.90
1704;DHT22;849;48.780;9.216;2023-01-28T15:09:39;4.90;99.90
1704;DHT22;849;48.780;9.216;2023-01-28T15:12:06;4.90;99.90
1704;DHT22;849;48.780;9.216;2023-01-28T15:14:32;4.90;99.90
1704;DHT22;849;48.780;9.216;2023-01-28T15:16:59;5.00;99.90
1704;DHT22;849;48.780;9.216;2023-01-28T15:19:27;5.00;99.90
1704;DHT22;849;48.780;9.216;2023-01-28T15:21:55;4.90;99.90
1704;DHT22;849;48.780;9.216;2023-01-28T15:24:22;4.90;99.90
1704;DHT22;849;48.780;9.216;2023-01-28T15:26:47;4.90;99.90
1704;DHT22;849;48.780;9.216;2023-01-28T15:29:29;4.90;99.90
1704;DHT22;849;48.780;9.216;2023-01-28T15:31:55;4.80;99.90
1704;DHT22;849;48.780;9.216;2023-01-28T15:34:21;4.90;99.90
1704;DHT22;849;48.780;9.216;2023-01-28T15:36:58;5.10;99.90
1704;DHT22;849;48.780;9.216;2023-01-28T15:39:25;5.00;99.90
1704;DHT22;849;48.780;9.216;2023-01-28T15:41:58;4.90;99.90
1704;DHT22;849;48.780;9.216;2023-01-28T15:44:34;4.80;99.90
1704;DHT22;849;48.780;9.216;2023-01-28T15:47:02;4.90;99.90
1704;DHT22;849;48.780;9.216;2023-01-28T15:49:35;4.90;99.90
1704;DHT22;849;48.780;9.216;2023-01-28T15:52:03;5.00;99.90
1704;DHT22;849;48.780;9.216;2023-01-28T15:54:29;5.00;99.90
1704;DHT22;849;48.780;9.216;2023-01-28T15:56:55;4.70;99.90
1704;DHT22;849;48.780;9.216;2023-01-28T15:59:25;4.70;99.90
1704;DHT22;849;48.780;9.216;2023-01-28T16:02:15;4.70;99.90
1704;DHT22;849;48.780;9.216;2023-01-28T16:04:41;4.90;99.90
1704;DHT22;849;48.780;9.216;2023-01-28T16:07:07;4.90;99.90
1704;DHT22;849;48.780;9.216;2023-01-28T16:09:34;4.90;99.90
1704;DHT22;849;48.780;9.216;2023-01-28T16:12:05;5.00;99.90
1704;DHT22;849;48.780;9.216;2023-01-28T16:15:03;5.00;99.90
1704;DHT22;849;48.780;9.216;2023-01-28T16:17:39;5.10;99.90
1704;DHT22;849;48.780;9.216;2023-01-28T16:20:16;5.10;99.90
1704;DHT22;849;48.780;9.216;2023-01-28T16:22:44;5.10;99.90
1704;DHT22;849;48.780;9.216;2023-01-28T16:25:34;5.10;99.90
1704;DHT22;849;48.780;9.216;2023-01-28T16:28:01;5.30;99.90
1704;DHT22;849;48.780;9.216;2023-01-28T16:30:28;5.30;99.90
1704;DHT22;849;48.780;9.216;2023-01-28T16:32:54;5.40;99.90
1704;DHT22;849;48.780;9.216;2023-01-28T16:35:30;5.40;99.90
1704;DHT22;849;48.780;9.216;2023-01-28T16:37:56;5.20;99.90
1704;DHT22;849;48.780;9.216;2023-01-28T16:40:23;5.20;99.90
1704;DHT22;849;48.780;9.216;2023-01-28T16:42:51;5.20;99.90
1704;DHT22;849;48.780;9.216;2023-01-28T16:45:22;5.10;99.90
1704;DHT22;849;48.780;9.216;2023-01-28T16:47:50;5.00;99.90
1704;DHT22;849;48.780;9.216;2023-01-28T16:50:17;4.90;99.90
1704;DHT22;849;48.780;9.216;2023-01-28T16:52:44;4.80;99.90
1704;DHT22;849;48.780;9.216;2023-01-28T16:55:15;4.60;99.90
1704;DHT22;849;48.780;9.216;2023-01-28T16:57:42;4.70;99.90
1704;DHT22;849;48.780;9.216;2023-01-28T17:00:20;4.80;99.90
1704;DHT22;849;48.780;9.216;2023-01-28T17:02:48;4.90;99.90
1704;DHT22;849;48.780;9.216;2023-01-28T17:05:14;4.90;99.90
1704;DHT22;849;48.780;9.216;2023-01-28T17:07:40;5.00;99.90
1704;DHT22;849;48.780;9.216;2023-01-28T17:10:07;5.00;99.90
1704;DHT22;849;48.780;9.216;2023-01-28T17:12:33;5.10;99.90
1704;DHT22;849;48.780;9.216;2023-01-28T17:14:58;5.20;99.90
1704;DHT22;849;48.780;9.216;2023-01-28T17:17:24;5.30;99.90
1704;DHT22;849;48.780;9.216;2023-01-28T17:19:49;5.40;99.90
1704;DHT22;849;48.780;9.216;2023-01-28T17:22:15;5.40;99.90
1704;DHT22;849;48.780;9.216;2023-01-28T17:24:41;5.20;99.90
1704;DHT22;849;48.780;9.216;2023-01-28T17:27:06;5.10;99.90
1704;DHT22;849;48.780;9.216;2023-01-28T17:29:32;5.20;99.90
1704;DHT22;849;48.780;9.216;2023-01-28T17:31:58;5.20;99.90
1704;DHT22;849;48.780;9.216;2023-01-28T17:34:24;5.30;99.90
1704;DHT22;849;48.780;9.216;2023-01-28T17:36:50;5.30;99.90
1704;DHT22;849;48.780;9.216;2023-01-28T17:39:16;5.40;99.90
1704;DHT22;849;48.780;9.216;2023-01-28T17:41:41;5.20;99.90
1704;DHT22;849;48.780;9.216;2023-01-28T17:44:10;5.00;99.90
1704;DHT22;849;48.780;9.216;2023-01-28T17:46:36;5.00;99.90
1704;DHT22;849;48.780;9.216;2023-01-28T17:49:02;4.90;99.90
1704;DHT22;849;48.780;9.216;2023-01-28T17:51:27;4.90;99.90
1704;DHT22;849;48.780;9.216;2023-01-28T17:53:53;4.90;99.90
1704;DHT22;849;48.780;9.216;2023-01-28T17:56:21;4.80;99.90
1704;DHT22;849;48.780;9.216;2023-01-28T17:58:58;4.90;99.90
1704;DHT22;849;48.780;9.216;2023-01-28T18:01:26;4.80;99.90
1704;DHT22;849;48.780;9.216;2023-01-28T18:03:53;4.90;99.90
1704;DHT22;849;48.780;9.216;2023-01-28T18:06:19;4.90;99.90
1704;DHT22;849;48.780;9.216;2023-01-28T18:08:45;4.90;99.90
1704;DHT22;849;48.780;9.216;2023-01-28T18:11:12;5.00;99.90
1704;DHT22;849;48.780;9.216;2023-01-28T18:13:40;5.10;99.90
1704;DHT22;849;48.780;9.216;2023-01-28T18:16:07;5.20;99.90
1704;DHT22;849;48.780;9.216;2023-01-28T18:18:33;5.20;99.90
1704;DHT22;849;48.780;9.216;2023-01-28T18:21:01;5.20;99.90
1704;DHT22;849;48.780;9.216;2023-01-28T18:23:27;5.10;99.90
1704;DHT22;849;48.780;9.216;2023-01-28T18:25:57;5.00;99.90
1704;DHT22;849;48.780;9.216;2023-01-28T18:28:23;5.10;99.90
1704;DHT22;849;48.780;9.216;2023-01-28T18:30:49;5.20;99.90
1704;DHT22;849;48.780;9.216;2023-01-28T18:33:16;5.20;99.90
1704;DHT22;849;48.780;9.216;2023-01-28T18:35:42;5.20;99.90
1704;DHT22;849;48.780;9.216;2023-01-28T18:38:10;5.30;99.90
1704;DHT22;849;48.780;9.216;2023-01-28T18:40:36;5.30;99.90
1704;DHT22;849;48.780;9.216;2023-01-28T18:43:02;5.30;99.90